Pagina principale
METAR-TAF:

METAR-TAF

Aeroporti :

Aeroporto di Maputo

Maputo, Mozambico

latitudine: 25-55S, longitudine: 032-34E, altezza: 39 m

Osservazione

Il bollettino è stato emesso 51 minuti fa, alle 12:00 UTC
Vento 17 kt da sud/sud-est
Temperature 32°C
Umidità 46%
Pressione 1011 hPa
Visibilità 10 km o più
Nubi sparse ad un'altezza di 2000 ft

METAR: FQMA 241200Z 16017KT 9999 SCT020 32/19 Q1011 NOSIG

Ora: 14:51 (12:51 UTC)

Previsione

Previsione valida dal 24 alle 12 UTC al 25 alle 18 UTC
Vento 12 kt da sud/sud-est con raffiche fino a 22 kt
Visibilità 10 km o più
Nubi sparse ad un'altezza di 2000 ft
Evoluzione graduale
dal 24 alle 18 UTC al 24 alle 20 UTC
Vento 12 kt da sud-ovest
Evoluzione graduale
dal 25 alle 06 UTC al 25 alle 08 UTC
Vento 10 kt da nord/nord-ovest

TAF: FQMA 2412/2518 15012G22KT 9999 SCT020 BECMG 2418/2420 23012KT BECMG 2506/2508 34010KT TX35/2413Z TN25/2503Z

Osservazioni e previsioni meteorologiche di più di 4000 aeroporti (messaggi METAR e TAF).

Le stazioni disponibili sono rappresentate dai dischi gialli e rossi sulla carta.

Puntare il mouse per vedere il nome della stazione.

Clicca sopra per visualizzare le osservazioni e previsioni meteorologiche.

Per cambiare la mappa : fare clic sui pulsanti verdi con una croce nera per ingrandire, il pulsante verde con un trattino per diminuire, o sulla freccia verde per le mappe adiacenti.


METAR-TAF: